createdAt,value
2023-09-12T00:13:23.826Z,72.64
2023-09-12T00:15:26.966Z,72.40
2023-09-12T00:17:38.886Z,72.44
2023-09-12T00:19:43.634Z,72.57
2023-09-12T00:48:27.132Z,71.96
2023-09-12T00:50:29.681Z,71.61
2023-09-12T00:52:34.410Z,72.09
2023-09-12T00:54:37.753Z,71.70
2023-09-12T00:56:39.897Z,71.79
2023-09-12T00:58:42.373Z,72.13
2023-09-12T01:00:44.476Z,72.16
2023-09-12T01:02:47.853Z,71.69
2023-09-12T01:04:52.522Z,71.62
2023-09-12T01:06:54.857Z,71.58
2023-09-12T01:08:56.956Z,71.63
2023-09-12T01:11:16.629Z,70.40
2023-09-12T01:13:18.936Z,71.39
2023-09-12T01:15:21.030Z,71.94
2023-09-12T01:17:29.762Z,71.47
2023-09-12T01:43:06.368Z,69.61
2023-09-12T01:45:26.892Z,69.52
2023-09-12T01:49:54.269Z,70.59
2023-09-12T01:51:58.066Z,70.86
2023-09-12T01:54:02.348Z,71.05
2023-09-12T01:56:04.440Z,70.97
2023-09-12T01:58:06.304Z,71.06
2023-09-12T02:00:13.569Z,70.71
2023-09-12T02:02:15.928Z,70.92
2023-09-12T02:04:17.756Z,70.77
2023-09-12T02:06:19.868Z,70.73
2023-09-12T02:08:23.537Z,70.72
2023-09-12T02:10:26.924Z,71.39
2023-09-12T02:12:30.136Z,71.06
2023-09-12T02:14:32.052Z,71.41
2023-09-12T02:16:34.020Z,71.00
2023-09-12T02:18:36.090Z,71.21
2023-09-12T02:20:40.334Z,71.26
2023-09-12T02:22:46.397Z,71.32
2023-09-12T02:29:22.866Z,71.03
2023-09-12T02:31:25.228Z,71.30
2023-09-12T02:35:44.162Z,71.28
2023-09-12T02:37:46.060Z,70.96
2023-09-12T02:39:47.678Z,71.73
2023-09-12T02:41:50.265Z,71.58
2023-09-12T02:43:53.662Z,71.57
2023-09-12T02:45:57.349Z,71.33
2023-09-12T02:47:59.295Z,71.45
2023-09-12T02:50:01.612Z,71.76
2023-09-12T02:52:04.176Z,71.04
2023-09-12T02:54:07.760Z,71.11
2023-09-12T02:56:11.327Z,71.38
2023-09-12T02:58:15.960Z,71.16
2023-09-12T03:02:43.816Z,70.99
2023-09-12T03:07:06.718Z,70.98
2023-09-12T03:09:10.617Z,71.10
2023-09-12T03:11:12.679Z,71.51
2023-09-12T03:13:20.862Z,71.24
2023-09-12T03:20:14.907Z,70.53
2023-09-12T03:22:17.147Z,70.18
2023-09-12T03:26:43.054Z,70.10
2023-09-12T03:31:20.740Z,69.80
2023-09-12T03:33:24.393Z,70.70
2023-09-12T03:35:29.517Z,70.60
2023-09-12T03:37:31.608Z,70.50
2023-09-12T03:39:37.614Z,70.04
2023-09-12T03:41:39.308Z,70.40
2023-09-12T03:43:43.775Z,70.62
2023-09-12T03:45:45.670Z,70.23
2023-09-12T03:47:52.621Z,70.84
2023-09-12T03:49:54.307Z,70.51
2023-09-12T03:51:56.651Z,69.96
2023-09-12T03:53:58.379Z,70.32
2023-09-12T03:56:00.180Z,69.96
2023-09-12T03:58:03.114Z,69.94
2023-09-12T04:00:07.998Z,69.86
2023-09-12T04:02:10.081Z,70.02
2023-09-12T04:04:13.563Z,69.90
2023-09-12T04:06:16.701Z,69.47
2023-09-12T04:08:19.207Z,69.79
2023-09-12T04:10:22.184Z,69.93
2023-09-12T04:12:25.956Z,69.95
2023-09-12T04:14:27.925Z,69.86
2023-09-12T04:16:29.707Z,69.60
2023-09-12T04:18:34.175Z,69.89
2023-09-12T04:20:37.540Z,69.77
2023-09-12T04:31:50.064Z,68.84
2023-09-12T04:33:52.231Z,69.15
2023-09-12T04:41:55.025Z,67.99
2023-09-12T04:53:31.857Z,69.53
2023-09-12T05:13:06.468Z,68.93
2023-09-12T05:15:08.980Z,68.52
2023-09-12T05:19:28.025Z,68.98
2023-09-12T05:21:31.262Z,68.84
2023-09-12T05:23:34.964Z,69.33
2023-09-12T05:25:38.690Z,68.81
2023-09-12T05:27:40.624Z,68.43
2023-09-12T05:29:46.080Z,68.54
2023-09-12T05:31:47.782Z,68.23
2023-09-12T05:33:49.743Z,68.74
2023-09-12T05:35:52.945Z,68.26
2023-09-12T05:37:55.839Z,67.84
2023-09-12T05:40:01.716Z,68.34
2023-09-12T05:42:03.812Z,68.18
2023-09-12T05:44:07.914Z,68.54
2023-09-12T05:46:10.077Z,68.56
2023-09-12T05:48:11.918Z,67.58
2023-09-12T05:50:13.911Z,67.77
2023-09-12T05:52:15.753Z,68.08
2023-09-12T05:54:22.764Z,67.89
2023-09-12T05:56:26.309Z,67.33
2023-09-12T05:58:28.882Z,67.41
2023-09-12T06:00:31.080Z,68.03
2023-09-12T06:02:33.046Z,67.51
2023-09-12T06:04:34.954Z,67.82
2023-09-12T06:06:36.892Z,67.37
2023-09-12T06:08:40.971Z,67.73
2023-09-12T06:10:43.247Z,67.70
2023-09-12T06:12:47.958Z,67.77
2023-09-12T06:14:51.641Z,67.33
2023-09-12T06:16:54.449Z,67.50
2023-09-12T06:18:56.369Z,67.10
2023-09-12T06:20:59.743Z,67.03
2023-09-12T06:23:01.389Z,66.37
2023-09-12T06:25:03.135Z,66.96
2023-09-12T06:27:06.402Z,66.31
2023-09-12T06:29:09.970Z,66.52
2023-09-12T06:31:11.693Z,66.43
2023-09-12T06:33:15.823Z,66.63
2023-09-12T06:35:20.344Z,66.37
2023-09-12T06:37:22.157Z,66.94
2023-09-12T06:39:23.821Z,66.67
2023-09-12T06:41:25.928Z,66.28
2023-09-12T06:43:29.593Z,66.82
2023-09-12T06:45:35.322Z,67.22
2023-09-12T06:47:37.349Z,67.58
2023-09-12T06:49:39.095Z,67.76
2023-09-12T06:51:41.042Z,67.46
2023-09-12T06:53:43.366Z,68.31
2023-09-12T06:55:45.219Z,68.62
2023-09-12T06:57:52.899Z,68.71
2023-09-12T06:59:56.712Z,68.40
2023-09-12T07:02:02.046Z,68.56
2023-09-12T07:04:04.399Z,69.51
2023-09-12T07:06:06.620Z,69.05
2023-09-12T07:08:12.430Z,68.86
2023-09-12T07:10:23.709Z,69.18
2023-09-12T07:12:28.928Z,69.26
2023-09-12T07:14:31.129Z,69.17
2023-09-12T07:16:33.683Z,70.09
2023-09-12T07:18:37.102Z,69.38
2023-09-12T07:20:40.509Z,69.24
2023-09-12T07:22:44.434Z,69.16
2023-09-12T07:24:47.175Z,69.58
2023-09-12T07:26:50.741Z,69.25
2023-09-12T07:28:53.978Z,68.91
2023-09-12T07:30:56.714Z,69.78
2023-09-12T07:33:00.294Z,68.95
2023-09-12T07:35:14.324Z,69.24
2023-09-12T07:37:56.573Z,69.06
2023-09-12T07:45:12.171Z,67.41
2023-09-12T07:45:13.669Z,68.07
2023-09-12T07:47:15.422Z,68.21
2023-09-12T07:49:21.719Z,68.14
2023-09-12T07:51:27.576Z,67.79
2023-09-12T07:53:29.594Z,68.43
2023-09-12T07:55:31.260Z,67.79
2023-09-12T07:57:35.581Z,66.95
2023-09-12T07:59:43.303Z,66.57
2023-09-12T08:01:46.795Z,66.68
2023-09-12T08:03:48.921Z,66.29
2023-09-12T08:05:56.127Z,66.36
2023-09-12T08:07:59.848Z,65.69
2023-09-12T08:10:02.411Z,65.11
2023-09-12T08:12:05.286Z,65.52
2023-09-12T08:14:07.195Z,65.01
2023-09-12T08:16:09.192Z,64.73
2023-09-12T08:18:11.464Z,64.70
2023-09-12T08:20:38.032Z,63.98
2023-09-12T08:22:39.209Z,63.19
2023-09-12T08:24:43.184Z,63.62
2023-09-12T08:26:45.077Z,63.06
2023-09-12T08:28:48.500Z,63.00
2023-09-12T08:30:50.180Z,63.32
2023-09-12T08:32:52.013Z,62.90
2023-09-12T08:34:54.117Z,62.89
2023-09-12T08:36:55.790Z,62.24
2023-09-12T08:38:57.630Z,62.85
2023-09-12T08:41:03.840Z,62.83
2023-09-12T08:43:16.196Z,62.77
2023-09-12T08:47:41.404Z,62.02
2023-09-12T08:49:43.466Z,61.25
2023-09-12T08:51:45.373Z,61.17
2023-09-12T08:56:33.374Z,60.55
2023-09-12T09:00:56.934Z,60.01
2023-09-12T09:03:02.322Z,59.79
2023-09-12T09:05:07.636Z,59.63
2023-09-12T09:07:15.527Z,60.34
2023-09-12T09:11:35.310Z,60.29
2023-09-12T09:13:38.704Z,60.41
2023-09-12T09:15:40.662Z,59.95
2023-09-12T09:17:47.288Z,59.77
2023-09-12T09:19:49.243Z,59.70
2023-09-12T09:21:51.385Z,59.24
2023-09-12T09:23:56.701Z,58.33
2023-09-12T09:26:00.485Z,58.08
2023-09-12T09:28:23.570Z,58.21
2023-09-12T09:31:04.442Z,58.80
2023-09-12T09:33:49.535Z,58.07
2023-09-12T09:36:13.830Z,56.66
2023-09-12T09:38:25.817Z,53.93
2023-09-12T09:40:32.809Z,54.10
2023-09-12T09:42:38.852Z,53.80
2023-09-12T09:44:40.698Z,54.71
2023-09-12T09:46:48.161Z,53.99
2023-09-12T09:48:51.146Z,54.39
2023-09-12T09:50:53.376Z,53.68
2023-09-12T09:52:57.157Z,54.08
2023-09-12T09:54:59.042Z,54.79
2023-09-12T09:57:02.660Z,52.64
2023-09-12T09:59:07.781Z,53.17
2023-09-12T10:01:12.110Z,52.43
2023-09-12T10:03:20.292Z,52.72
2023-09-12T10:05:27.424Z,53.47
2023-09-12T10:07:31.369Z,52.05
2023-09-12T10:09:36.027Z,52.45
2023-09-12T10:11:41.130Z,52.44
2023-09-12T10:13:47.806Z,53.02
2023-09-12T10:15:51.620Z,52.35
2023-09-12T10:17:58.686Z,52.65
2023-09-12T10:20:05.531Z,52.62
2023-09-12T10:22:11.275Z,52.37
2023-09-12T10:24:17.886Z,53.23
2023-09-12T10:26:26.326Z,52.09
2023-09-12T10:28:29.375Z,51.72
2023-09-12T10:30:33.553Z,49.77
2023-09-12T10:32:36.830Z,49.75
2023-09-12T10:34:43.008Z,48.56
2023-09-12T10:36:50.115Z,48.54
2023-09-12T10:38:52.091Z,48.18
2023-09-12T10:40:55.082Z,48.48
2023-09-12T10:43:08.152Z,49.62
2023-09-12T10:45:10.876Z,48.69
2023-09-12T10:47:16.259Z,48.02
2023-09-12T10:49:18.844Z,48.68
2023-09-12T10:51:23.174Z,48.75
2023-09-12T10:53:27.095Z,48.22
2023-09-12T10:55:31.982Z,48.74
2023-09-12T10:57:34.605Z,47.48
2023-09-12T10:59:39.475Z,48.10
2023-09-12T11:01:49.123Z,48.54
2023-09-12T11:03:51.115Z,49.41
2023-09-12T11:05:54.982Z,49.38
2023-09-12T11:07:59.652Z,50.19
2023-09-12T11:10:18.088Z,50.70
2023-09-12T11:12:36.028Z,50.69
2023-09-12T11:23:25.136Z,49.39
2023-09-12T11:25:30.236Z,48.73
2023-09-12T11:28:02.764Z,49.48
2023-09-12T11:30:06.103Z,46.95
2023-09-12T11:32:09.633Z,47.45
2023-09-12T11:34:11.562Z,47.60
2023-09-12T11:36:14.943Z,47.40
2023-09-12T11:38:29.784Z,49.05
2023-09-12T11:40:45.167Z,48.70
2023-09-12T11:42:46.884Z,46.95
2023-09-12T11:44:49.967Z,46.91
2023-09-12T11:46:53.113Z,47.21
2023-09-12T11:48:55.098Z,46.60
2023-09-12T11:50:58.632Z,47.04
2023-09-12T11:53:01.899Z,46.30
2023-09-12T11:55:03.945Z,45.98
2023-09-12T11:57:08.863Z,46.37
2023-09-12T11:59:14.530Z,45.71
2023-09-12T12:01:24.338Z,46.66
2023-09-12T12:03:27.593Z,45.68
2023-09-12T12:05:30.385Z,45.03
2023-09-12T12:07:32.609Z,45.16
2023-09-12T12:09:36.302Z,45.54
2023-09-12T12:11:38.312Z,44.66
2023-09-12T12:13:41.643Z,44.40
2023-09-12T12:15:43.632Z,44.54
2023-09-12T12:17:45.340Z,45.71
2023-09-12T12:19:53.147Z,45.99
2023-09-12T12:21:55.036Z,44.53
2023-09-12T12:24:00.488Z,45.36
2023-09-12T12:26:07.485Z,45.92
2023-09-12T12:28:09.942Z,45.53
2023-09-12T12:30:14.478Z,45.85
2023-09-12T12:32:18.025Z,45.58
2023-09-12T12:35:07.688Z,46.65
2023-09-12T12:36:53.671Z,45.74
2023-09-12T12:38:58.910Z,46.61
2023-09-12T12:41:00.696Z,46.84
2023-09-12T12:43:02.634Z,47.87
2023-09-12T12:45:13.440Z,48.87
2023-09-12T12:47:17.074Z,47.67
2023-09-12T12:49:19.114Z,47.73
2023-09-12T12:51:22.269Z,47.98
2023-09-12T12:53:50.389Z,49.05
2023-09-12T12:55:54.395Z,48.26
2023-09-12T12:57:57.297Z,48.73
2023-09-12T12:59:59.997Z,47.85
2023-09-12T13:02:03.109Z,47.48
2023-09-12T13:04:06.767Z,47.85
2023-09-12T13:06:08.524Z,47.51
2023-09-12T13:08:10.100Z,47.55
2023-09-12T13:10:12.452Z,47.16
2023-09-12T13:12:16.074Z,46.62
2023-09-12T13:14:19.785Z,46.72
2023-09-12T13:16:27.692Z,45.95
2023-09-12T13:18:47.460Z,46.71
2023-09-12T13:20:49.587Z,43.88
2023-09-12T13:22:51.245Z,43.54
2023-09-12T13:24:52.969Z,44.11
2023-09-12T13:26:56.027Z,43.99
2023-09-12T13:28:59.999Z,44.97
2023-09-12T13:31:01.828Z,45.10
2023-09-12T13:33:04.041Z,44.98
2023-09-12T13:35:08.081Z,44.55
2023-09-12T13:37:13.253Z,43.67
2023-09-12T13:39:15.237Z,43.41
2023-09-12T13:41:18.250Z,43.53
2023-09-12T13:43:20.065Z,42.94
2023-09-12T13:45:23.807Z,43.13
2023-09-12T13:47:27.113Z,43.29
2023-09-12T13:49:31.042Z,43.59
2023-09-12T13:54:10.282Z,43.34
2023-09-12T13:54:59.830Z,43.19
2023-09-12T13:56:32.015Z,43.25
2023-09-12T13:58:42.420Z,43.36
2023-09-12T14:00:48.048Z,43.12
2023-09-12T14:02:50.131Z,43.28
2023-09-12T14:05:05.789Z,43.43
2023-09-12T14:07:13.547Z,44.37
2023-09-12T14:09:21.797Z,43.98
2023-09-12T14:11:32.762Z,44.04
2023-09-12T14:13:37.546Z,44.13
2023-09-12T14:15:39.672Z,44.17
2023-09-12T14:17:50.127Z,44.71
2023-09-12T14:19:58.052Z,44.56
2023-09-12T14:22:04.094Z,44.36
2023-09-12T14:24:08.520Z,44.45
2023-09-12T14:26:11.423Z,44.41
2023-09-12T14:28:15.368Z,44.40
2023-09-12T14:30:19.410Z,44.87
2023-09-12T14:32:21.385Z,44.94
2023-09-12T14:34:23.252Z,45.39
2023-09-12T14:36:26.590Z,45.56
2023-09-12T14:38:28.579Z,45.39
2023-09-12T14:40:31.798Z,45.51
2023-09-12T14:42:35.179Z,45.73
2023-09-12T14:44:37.244Z,46.57
2023-09-12T14:46:39.308Z,48.17
2023-09-12T14:48:49.998Z,49.32
2023-09-12T14:50:57.881Z,50.49
2023-09-12T14:52:59.642Z,51.07
2023-09-12T14:55:01.720Z,51.19
2023-09-12T14:57:05.502Z,51.87
2023-09-12T14:59:07.236Z,51.34
2023-09-12T15:01:10.161Z,51.65
2023-09-12T15:03:13.647Z,51.75
2023-09-12T15:05:15.844Z,52.09
2023-09-12T15:07:17.708Z,51.89
2023-09-12T15:09:20.943Z,51.53
2023-09-12T15:11:24.710Z,51.69
2023-09-12T15:13:30.998Z,52.09
2023-09-12T15:15:39.759Z,51.96
2023-09-12T15:17:41.718Z,51.92
2023-09-12T15:19:43.480Z,52.25
2023-09-12T15:21:45.399Z,52.46
2023-09-12T15:23:47.428Z,52.56
2023-09-12T15:25:49.277Z,52.70
2023-09-12T15:27:51.344Z,52.96
2023-09-12T15:29:54.738Z,52.84
2023-09-12T15:31:56.526Z,53.06
2023-09-12T15:33:58.284Z,52.94
2023-09-12T15:36:02.015Z,51.29
2023-09-12T15:38:06.974Z,51.80
2023-09-12T15:40:09.825Z,51.19
2023-09-12T15:42:23.888Z,51.54
2023-09-12T15:44:33.501Z,51.28
2023-09-12T15:46:37.090Z,51.90
2023-09-12T15:48:39.270Z,52.25
2023-09-12T15:50:41.656Z,52.22
2023-09-12T15:52:43.799Z,52.53
2023-09-12T15:54:51.995Z,52.05
2023-09-12T16:04:20.155Z,52.48
2023-09-12T16:06:25.428Z,53.32
2023-09-12T16:08:28.231Z,53.07
2023-09-12T16:10:32.044Z,53.38
2023-09-12T16:12:35.004Z,53.86
2023-09-12T16:14:36.684Z,53.99
2023-09-12T16:16:38.964Z,53.16
2023-09-12T16:18:40.645Z,53.19
2023-09-12T16:20:42.452Z,53.58
2023-09-12T16:22:49.222Z,53.15
2023-09-12T16:24:50.947Z,53.61
2023-09-12T16:26:52.827Z,53.29
2023-09-12T16:28:55.024Z,53.52
2023-09-12T16:30:57.237Z,53.20
2023-09-12T16:32:59.586Z,53.29
2023-09-12T16:35:06.408Z,53.32
2023-09-12T16:37:12.827Z,53.45
2023-09-12T16:39:16.001Z,53.68
2023-09-12T16:41:28.163Z,54.42
2023-09-12T16:43:29.910Z,54.53
2023-09-12T16:45:31.993Z,54.61
2023-09-12T16:47:33.788Z,55.00
2023-09-12T16:49:43.856Z,54.66
2023-09-12T17:04:42.817Z,54.17
2023-09-12T17:06:45.733Z,56.43
2023-09-12T17:08:47.547Z,55.70
2023-09-12T17:10:49.562Z,56.29
2023-09-12T17:12:53.758Z,56.14
2023-09-12T17:14:55.802Z,56.49
2023-09-12T17:16:57.584Z,56.11
2023-09-12T17:18:59.345Z,55.96
2023-09-12T17:21:04.529Z,55.89
2023-09-12T17:23:06.447Z,56.04
2023-09-12T17:25:10.103Z,56.42
2023-09-12T17:27:12.572Z,56.46
2023-09-12T17:29:16.087Z,56.78
2023-09-12T17:31:20.847Z,57.87
2023-09-12T17:33:22.619Z,57.39
2023-09-12T17:35:26.119Z,57.29
2023-09-12T17:37:29.237Z,56.78
2023-09-12T17:39:31.066Z,57.61
2023-09-12T17:41:34.818Z,57.61
2023-09-12T17:43:38.236Z,57.33
2023-09-12T17:45:40.186Z,57.74
2023-09-12T17:47:41.912Z,57.74
2023-09-12T17:49:45.692Z,57.56
2023-09-12T17:51:47.435Z,57.49
2023-09-12T17:53:54.598Z,57.60
2023-09-12T17:55:58.619Z,57.55
2023-09-12T17:58:04.601Z,57.54
2023-09-12T18:00:08.114Z,57.44
2023-09-12T18:02:12.756Z,56.51
2023-09-12T18:04:16.653Z,56.48
2023-09-12T18:06:19.991Z,57.13
2023-09-12T18:08:23.219Z,56.95
2023-09-12T18:10:28.059Z,56.68
2023-09-12T18:12:29.992Z,56.99
2023-09-12T18:14:33.898Z,56.66
2023-09-12T18:16:35.561Z,56.36
2023-09-12T18:18:45.169Z,56.28
2023-09-12T18:21:18.165Z,56.80
2023-09-12T18:23:14.700Z,56.23
2023-09-12T18:25:16.705Z,56.60
2023-09-12T18:27:20.338Z,56.85
2023-09-12T18:29:22.162Z,57.52
2023-09-12T18:31:24.038Z,57.12
2023-09-12T18:33:28.075Z,56.96
2023-09-12T18:35:31.556Z,57.01
2023-09-12T18:37:34.314Z,56.82
2023-09-12T18:39:37.644Z,57.55
2023-09-12T18:41:40.284Z,57.25
2023-09-12T18:46:05.480Z,57.85
2023-09-12T18:48:07.645Z,57.58
2023-09-12T18:50:10.446Z,58.02
2023-09-12T18:52:12.151Z,58.18
2023-09-12T18:54:19.190Z,57.21
2023-09-12T18:56:23.970Z,57.88
2023-09-12T18:58:25.624Z,58.48
2023-09-12T19:00:33.454Z,58.26
2023-09-12T19:02:35.166Z,58.59
2023-09-12T19:04:37.345Z,58.90
2023-09-12T19:16:49.767Z,58.98
2023-09-12T20:06:15.044Z,60.62
2023-09-12T20:12:53.788Z,62.60
2023-09-12T20:14:56.206Z,62.73
2023-09-12T20:16:57.914Z,62.83
2023-09-12T20:18:59.654Z,62.71
2023-09-12T20:21:01.684Z,63.41
2023-09-12T20:23:04.889Z,63.54
2023-09-12T20:51:18.183Z,64.25
2023-09-12T20:53:19.906Z,64.85
2023-09-12T20:55:21.883Z,64.37
2023-09-12T20:57:23.710Z,64.82
2023-09-12T20:59:26.721Z,64.13
2023-09-12T21:01:28.428Z,64.80
2023-09-12T21:03:30.312Z,64.68
2023-09-12T21:05:33.201Z,64.53
2023-09-12T21:07:34.967Z,63.89
2023-09-12T21:09:37.042Z,63.81
2023-09-12T21:11:38.776Z,64.11
2023-09-12T21:13:40.445Z,63.73
2023-09-12T21:15:44.209Z,65.02
2023-09-12T21:17:46.386Z,64.56
2023-09-12T21:19:48.442Z,65.09
2023-09-12T21:21:52.065Z,65.64
2023-09-12T21:23:55.946Z,65.45
2023-09-12T21:25:57.580Z,64.95
2023-09-12T21:27:59.294Z,65.41
2023-09-12T21:30:02.977Z,65.68
2023-09-12T21:32:06.709Z,64.80
2023-09-12T21:34:08.792Z,65.75
2023-09-12T21:36:11.368Z,65.19
2023-09-12T21:38:13.135Z,65.46
2023-09-12T21:40:16.117Z,65.25
2023-09-12T21:42:18.111Z,65.96
2023-09-12T21:44:19.817Z,66.21
2023-09-12T21:46:21.619Z,66.14
2023-09-12T21:48:24.983Z,66.41
2023-09-12T21:50:26.656Z,65.77
2023-09-12T21:52:28.304Z,66.39
2023-09-12T21:54:32.168Z,65.80
2023-09-12T21:56:34.065Z,66.31
2023-09-12T21:58:36.091Z,66.18
2023-09-12T22:00:38.234Z,66.41
2023-09-12T22:02:40.343Z,66.06
2023-09-12T22:04:45.133Z,66.35
2023-09-12T22:06:48.130Z,66.41
2023-09-12T22:08:55.839Z,66.69
2023-09-12T22:10:57.499Z,66.58
2023-09-12T22:20:25.200Z,64.90
2023-09-12T22:22:30.807Z,65.76
2023-09-12T22:24:33.650Z,66.56
2023-09-12T22:26:36.844Z,67.10
2023-09-12T22:28:41.162Z,67.22
2023-09-12T22:30:42.957Z,67.66
2023-09-12T22:32:44.941Z,67.23
2023-09-12T22:34:46.825Z,67.87
2023-09-12T22:36:48.648Z,67.49
2023-09-12T22:38:57.644Z,66.85
2023-09-12T22:47:45.758Z,67.41
2023-09-12T22:49:47.683Z,67.03
2023-09-12T22:51:49.684Z,68.02
2023-09-12T22:53:53.255Z,68.01
2023-09-12T22:55:56.742Z,68.40
2023-09-12T22:57:58.403Z,68.10
2023-09-12T23:00:02.009Z,68.00
2023-09-12T23:02:04.005Z,67.97
2023-09-12T23:04:06.281Z,67.98
2023-09-12T23:06:11.569Z,67.20
2023-09-12T23:08:14.209Z,67.45
2023-09-12T23:10:21.218Z,67.30
2023-09-12T23:19:10.225Z,68.28
2023-09-12T23:21:13.950Z,68.82
2023-09-12T23:23:16.444Z,69.04
2023-09-12T23:25:19.686Z,68.92
2023-09-12T23:27:21.909Z,68.04
2023-09-12T23:29:23.674Z,68.40
2023-09-12T23:31:26.847Z,68.15
2023-09-12T23:33:28.771Z,68.16
2023-09-12T23:35:30.481Z,68.35
2023-09-12T23:37:32.445Z,68.45
2023-09-12T23:39:34.799Z,68.96
2023-09-12T23:41:38.015Z,68.80
2023-09-12T23:43:40.266Z,68.59
2023-09-12T23:45:42.408Z,68.84
2023-09-12T23:47:44.596Z,69.95
2023-09-12T23:49:48.876Z,69.27
2023-09-12T23:51:50.569Z,69.07
2023-09-12T23:53:52.808Z,68.67
2023-09-12T23:55:59.472Z,68.61
2023-09-12T23:58:06.571Z,69.62
